Hlavní strana
METAR-TAF:

METAR-TAF

Letiště :

Saint-Denis, Réunion

zeměpisná šířka: 20-53S, zeměpisná délka: 055-31E, výška: 21 m

Aktuální stav počasí

Zpráva byla vytvořena před 24 minutami, v 22:30 UTC
Východní vítr 11 kt
Teplota 26°C
Vlhkost vzduchu 65%
Tlak 1014 hPa
Viditelnost 10 km a více

METAR: FMEE 222230Z AUTO 10011KT 9999 ///CB 26/19 Q1014 TEMPO SHRA BECMG FEW020

Čas: 02:54 (22:54 UTC)

Předpověď počasí

Zpráva byla vytvořena před 5 hodinami a 54 minutami, v 17:00 UTC
Předpověď platná od 22 v 18 UTC do 23 v 24 UTC
Jihovýchodní vítr 8 kt
Viditelnost 10 km a více
Skoro jasno ve výšce 2000 ft
Dočasný
od 22 v 18 UTC do 22 v 24 UTC
Polojasno ve výšce 2000 ft, Vertikální cumulus.
dešťové přeháňky
Změna
od 23 v 03 UTC do 23 v 05 UTC
Východoseverovýchodní vítr 15 kt
Změna
od 23 v 16 UTC do 23 v 18 UTC
Jihojihovýchodní vítr 6 kt

TAF: FMEE 221700Z 2218/2324 13008KT 9999 FEW020 TEMPO 2218/2224 SHRA SCT020TCU BECMG 2303/2305 07015KT BECMG 2316/2318 16006KT

Stav a předpovědi počasí z více než 4 000 letišť (zprávy METAR a TAF).

Červené a žluté tečky na mapě představují dostupné meteorologické stanice.

Když kurzor umístíte na tečku, zobrazí se název stanice.

Pak kliknutím zobrazíte stav a předpověď počasí.

Chcete-li změnit mapu, kliknutím na zelené tlačítko se znaménkem +mapu přiblížíte, kliknutím na zelené tlačítko se znaménkem – mapu oddálíte a kliknutím na zelené šipky přejdete na sousední mapy.


METAR-TAF: